Wichita Mid Continent Airport
KICT : now visible

Airfield :











YOU CAN JOIN US ON...

 
LOGIN :

Register | Disclaimer

   EN    FR    IT 

 









Legend :    VFR   Marginal VFR   IFR   Intensive IFR   Very Intensive IFR
Visi :
Ceiling :
>= 8 km
>= 3000ft
5 to 8 km
1000 to 3000 ft
1500m to 5 km
500 to 1000 ft
800 to 1500m
200 to 500 ft
< 800m
< 200 ft
Symbols :   Thunderstorms  Fog  Heavy snow  Heavy precipitations  Wind > 20 kt






- Airport Elevation : 1333 ft
- IATA code : ICT


KICT - Wichita Mid Continent

CURRENT METAR :
  • 240553Z 08016G24KT 8SM -RA OVC006 08/07 A2966 RMK AO2 SLP046 P0012 60085 T00780067 10083 20072 400890072 58030

EXPIRED METARs :
  • 240453Z 10011KT 5SM RA BR BKN006 OVC031 08/07 A2971 RMK AO2 SLP064 P0033 T00780067
  • 240353Z 10010KT 4SM RA BR OVC006 08/07 A2973 RMK AO2 SLP069 P0024 T00780067

TAF KICT
Valid from the 24 at 06:00 until the 25 at 06:00 UTC


240532Z 2406/2506 09015KT 3SM RA BKN006 OVC025
FM240900 03015G23KT 6SM -RA OVC003
FM241400 36018KT 6SM -RA OVC008
FM241900 35017KT P6SM VCSH BKN015
FM242000 35016G24KT P6SM BKN020
FM242300 35013KT P6SM BKN080



MET'MAP, your aeronautical weather chart ! - Copyright ORBIFLY December 2007 - Disclaimer

ORBIFLY MET'MAP TEAM :

Programming & Development : Alexandra Zaïnal
Concept & original design : Baudouin d'Aumeries
Assistance for programming : Marc-Olivier Méhu
Technical & hardware support : Manuel Goepfert

Contact : metmap@orbifly.com




SOURCES & CREDITS :

   NOAA       Earth
Advisory